createdAt,value
2023-03-17T00:01:51.176Z,7.03
2023-03-17T00:04:20.325Z,8.97
2023-03-17T00:06:49.364Z,8.70
2023-03-17T00:09:19.993Z,8.67
2023-03-17T00:11:49.239Z,7.33
2023-03-17T00:14:19.971Z,8.73
2023-03-17T00:16:50.640Z,11.57
2023-03-17T00:19:22.669Z,7.83
2023-03-17T00:21:51.647Z,7.33
2023-03-17T00:24:20.247Z,5.37
2023-03-17T00:26:48.831Z,5.67
2023-03-17T00:29:19.071Z,5.40
2023-03-17T00:31:48.109Z,7.70
2023-03-17T00:34:19.785Z,5.70
2023-03-17T00:36:49.708Z,6.40
2023-03-17T00:39:18.755Z,6.70
2023-03-17T00:44:15.379Z,6.80
2023-03-17T00:46:46.441Z,7.77
2023-03-17T00:49:20.948Z,8.37
2023-03-17T00:51:50.698Z,7.53
2023-03-17T00:54:20.509Z,3.77
2023-03-17T00:56:49.455Z,5.83
2023-03-17T00:59:23.087Z,7.70
2023-03-17T01:01:53.217Z,6.77
2023-03-17T01:04:22.152Z,6.33
2023-03-17T01:06:52.072Z,6.10
2023-03-17T01:09:21.762Z,5.40
2023-03-17T01:11:50.380Z,10.10
2023-03-17T01:14:19.336Z,5.67
2023-03-17T01:16:48.599Z,8.10
2023-03-17T01:19:19.041Z,6.00
2023-03-17T01:21:47.966Z,4.43
2023-03-17T01:24:16.598Z,9.60
2023-03-17T01:26:45.779Z,7.27
2023-03-17T01:29:14.446Z,10.90
2023-03-17T01:31:44.184Z,7.07
2023-03-17T01:34:12.834Z,4.97
2023-03-17T01:36:43.271Z,6.43
2023-03-17T01:39:12.852Z,5.40
2023-03-17T01:41:41.551Z,8.73
2023-03-17T01:44:16.860Z,5.80
2023-03-17T01:46:45.849Z,7.57
2023-03-17T01:49:21.301Z,5.03
2023-03-17T01:52:03.634Z,6.20
2023-03-17T01:54:37.482Z,8.43
2023-03-17T01:57:11.558Z,5.90
2023-03-17T01:59:43.631Z,7.43
2023-03-17T02:02:14.673Z,6.10
2023-03-17T02:04:43.357Z,12.87
2023-03-17T02:07:13.530Z,5.83
2023-03-17T02:09:42.151Z,6.93
2023-03-17T02:12:12.052Z,5.60
2023-03-17T02:14:41.697Z,4.47
2023-03-17T02:17:10.830Z,6.90
2023-03-17T02:19:39.858Z,7.13
2023-03-17T02:22:10.099Z,5.20
2023-03-17T02:24:43.246Z,5.10
2023-03-17T02:27:14.641Z,6.27
2023-03-17T02:29:46.245Z,4.00
2023-03-17T02:32:15.800Z,6.10
2023-03-17T02:34:44.676Z,5.40
2023-03-17T02:37:15.145Z,6.03
2023-03-17T02:39:43.909Z,6.47
2023-03-17T02:42:13.039Z,5.97
2023-03-17T02:44:41.617Z,7.00
2023-03-17T02:47:10.773Z,5.57
2023-03-17T02:49:40.272Z,6.30
2023-03-17T02:52:09.524Z,4.67
2023-03-17T02:54:39.825Z,6.17
2023-03-17T02:57:08.591Z,5.53
2023-03-17T02:59:37.522Z,5.57
2023-03-17T03:02:06.225Z,4.10
2023-03-17T03:04:34.841Z,4.53
2023-03-17T03:07:03.985Z,4.33
2023-03-17T03:09:32.717Z,4.80
2023-03-17T03:12:02.676Z,5.33
2023-03-17T03:14:32.426Z,4.87
2023-03-17T03:17:01.050Z,4.13
2023-03-17T03:19:29.725Z,4.67
2023-03-17T03:21:58.376Z,8.83
2023-03-17T03:24:27.812Z,4.40
2023-03-17T03:26:56.402Z,5.97
2023-03-17T03:29:26.964Z,5.57
2023-03-17T03:31:55.984Z,6.70
2023-03-17T03:34:24.619Z,9.43
2023-03-17T03:36:53.262Z,5.00
2023-03-17T03:39:21.850Z,4.67
2023-03-17T03:41:50.514Z,4.17
2023-03-17T03:44:19.161Z,5.40
2023-03-17T03:46:49.160Z,5.80
2023-03-17T03:49:17.934Z,11.43
2023-03-17T03:51:46.552Z,6.20
2023-03-17T03:54:15.424Z,6.77
2023-03-17T03:56:44.002Z,5.40
2023-03-17T03:59:12.740Z,4.60
2023-03-17T04:01:41.559Z,5.00
2023-03-17T04:04:11.547Z,6.90
2023-03-17T04:06:40.379Z,7.00
2023-03-17T04:09:09.635Z,4.60
2023-03-17T04:11:38.214Z,9.53
2023-03-17T04:14:07.380Z,5.63
2023-03-17T04:16:36.058Z,9.90
2023-03-17T04:19:04.872Z,5.80
2023-03-17T04:21:34.828Z,7.13
2023-03-17T04:24:05.054Z,5.57
2023-03-17T04:26:33.704Z,7.30
2023-03-17T04:29:02.328Z,7.80
2023-03-17T04:31:31.441Z,8.93
2023-03-17T04:34:00.119Z,7.60
2023-03-17T04:36:28.975Z,6.73
2023-03-17T04:38:58.940Z,6.87
2023-03-17T04:41:27.710Z,7.00
2023-03-17T04:43:56.343Z,8.27
2023-03-17T04:46:24.957Z,8.30
2023-03-17T04:48:53.559Z,7.80
2023-03-17T04:51:22.157Z,6.40
2023-03-17T04:53:52.353Z,5.23
2023-03-17T04:56:22.344Z,7.90
2023-03-17T04:58:50.934Z,9.43
2023-03-17T05:01:19.537Z,6.03
2023-03-17T05:03:48.266Z,6.27
2023-03-17T05:06:17.593Z,9.20
2023-03-17T05:08:46.468Z,5.97
2023-03-17T05:11:15.709Z,5.27
2023-03-17T05:13:46.292Z,13.03
2023-03-17T05:16:15.027Z,5.17
2023-03-17T05:18:44.701Z,9.33
2023-03-17T05:21:13.356Z,9.70
2023-03-17T05:23:41.998Z,12.67
2023-03-17T05:26:10.963Z,13.20
2023-03-17T05:28:39.619Z,7.10
2023-03-17T05:31:11.049Z,9.53
2023-03-17T05:33:39.887Z,14.00
2023-03-17T05:36:08.904Z,9.90
2023-03-17T05:38:37.797Z,15.87
2023-03-17T05:41:06.536Z,12.27
2023-03-17T05:43:35.414Z,13.90
2023-03-17T05:46:04.110Z,7.70
2023-03-17T05:48:34.153Z,6.83
2023-03-17T05:51:02.804Z,7.83
2023-03-17T05:53:31.428Z,9.10
2023-03-17T05:56:00.050Z,11.00
2023-03-17T05:58:28.894Z,8.60
2023-03-17T06:00:57.494Z,9.33
2023-03-17T06:03:26.232Z,8.80
2023-03-17T06:05:56.842Z,8.30
2023-03-17T06:08:25.447Z,10.27
2023-03-17T06:10:54.032Z,8.13
2023-03-17T06:13:22.621Z,12.53
2023-03-17T06:15:52.776Z,7.63
2023-03-17T06:18:22.292Z,9.10
2023-03-17T06:20:50.972Z,8.50
2023-03-17T06:23:21.631Z,9.90
2023-03-17T06:25:50.502Z,9.23
2023-03-17T06:28:19.662Z,8.50
2023-03-17T06:30:48.335Z,10.63
2023-03-17T06:33:18.122Z,9.30
2023-03-17T06:35:47.006Z,12.70
2023-03-17T06:38:15.660Z,15.37
2023-03-17T06:40:45.633Z,10.10
2023-03-17T06:43:14.321Z,9.37
2023-03-17T06:45:42.951Z,9.80
2023-03-17T06:48:11.588Z,9.50
2023-03-17T06:50:40.525Z,9.97
2023-03-17T06:53:09.257Z,7.67
2023-03-17T06:55:37.839Z,7.17
2023-03-17T06:58:09.323Z,11.20
2023-03-17T07:00:39.916Z,8.40
2023-03-17T07:03:09.909Z,9.03
2023-03-17T07:05:39.389Z,9.97
2023-03-17T07:08:08.326Z,12.80
2023-03-17T07:10:37.211Z,8.90
2023-03-17T07:13:08.496Z,10.50
2023-03-17T07:15:37.398Z,12.00
2023-03-17T07:18:06.924Z,7.30
2023-03-17T07:20:35.838Z,9.33
2023-03-17T07:23:04.493Z,24.37
2023-03-17T07:25:33.407Z,13.30
2023-03-17T07:28:03.128Z,10.83
2023-03-17T07:30:33.789Z,15.07
2023-03-17T07:33:02.443Z,10.30
2023-03-17T07:35:33.711Z,12.40
2023-03-17T07:38:02.990Z,9.60
2023-03-17T07:40:34.239Z,8.80
2023-03-17T07:43:04.584Z,9.83
2023-03-17T07:45:35.983Z,7.63
2023-03-17T07:48:05.260Z,7.03
2023-03-17T07:50:33.948Z,9.10
2023-03-17T07:53:03.170Z,8.13
2023-03-17T07:55:33.523Z,14.40
2023-03-17T07:58:02.811Z,9.70
2023-03-17T08:00:32.093Z,11.50
2023-03-17T08:03:09.861Z,9.70
2023-03-17T08:05:39.666Z,9.40
2023-03-17T08:08:08.358Z,5.20
2023-03-17T08:10:37.107Z,7.70
2023-03-17T08:13:05.717Z,7.07
2023-03-17T08:15:34.337Z,10.80
2023-03-17T08:18:04.447Z,6.03
2023-03-17T08:20:33.696Z,6.57
2023-03-17T08:23:02.616Z,7.03
2023-03-17T08:25:31.563Z,5.30
2023-03-17T08:28:00.688Z,6.90
2023-03-17T08:30:32.856Z,6.17
2023-03-17T08:33:02.709Z,5.80
2023-03-17T08:35:33.157Z,5.40
2023-03-17T08:38:02.393Z,5.70
2023-03-17T08:40:31.499Z,14.17
2023-03-17T08:43:00.438Z,5.73
2023-03-17T08:45:29.444Z,6.47
2023-03-17T08:47:58.417Z,16.73
2023-03-17T08:50:27.477Z,5.87
2023-03-17T08:52:57.479Z,6.50
2023-03-17T08:55:26.085Z,4.70
2023-03-17T08:57:54.679Z,8.27
2023-03-17T09:00:24.607Z,6.27
2023-03-17T09:02:53.382Z,9.60
2023-03-17T09:05:22.009Z,8.77
2023-03-17T09:07:50.795Z,10.13
2023-03-17T09:10:23.463Z,7.03
2023-03-17T09:12:53.333Z,5.10
2023-03-17T09:15:22.013Z,7.83
2023-03-17T09:17:50.851Z,9.67
2023-03-17T09:20:20.434Z,7.63
2023-03-17T09:22:49.397Z,7.67
2023-03-17T09:25:18.499Z,7.10
2023-03-17T09:27:48.519Z,8.47
2023-03-17T09:30:17.693Z,6.60
2023-03-17T09:32:46.752Z,5.47
2023-03-17T09:35:15.419Z,6.00
2023-03-17T09:37:44.061Z,6.70
2023-03-17T09:40:15.785Z,3.93
2023-03-17T09:42:56.018Z,4.00
2023-03-17T09:45:31.468Z,3.77
2023-03-17T09:48:15.710Z,5.80
2023-03-17T09:50:48.580Z,7.77
2023-03-17T09:53:20.213Z,5.17
2023-03-17T09:55:51.723Z,10.10
2023-03-17T09:58:29.035Z,5.60
2023-03-17T10:00:57.834Z,8.30
2023-03-17T10:03:27.213Z,6.27
2023-03-17T10:06:00.607Z,12.13
2023-03-17T10:08:32.554Z,10.00
2023-03-17T10:11:04.191Z,8.40
2023-03-17T10:13:46.102Z,4.33
2023-03-17T10:16:15.530Z,6.00
2023-03-17T10:18:47.825Z,6.67
2023-03-17T10:21:19.906Z,5.30
2023-03-17T10:23:48.552Z,5.63
2023-03-17T10:26:25.958Z,5.07
2023-03-17T10:28:56.116Z,4.90
2023-03-17T10:31:29.716Z,5.10
2023-03-17T10:34:00.040Z,3.33
2023-03-17T10:36:37.696Z,4.80
2023-03-17T10:39:08.131Z,5.10
2023-03-17T10:41:40.912Z,11.80
2023-03-17T10:44:16.649Z,4.53
2023-03-17T10:46:54.057Z,6.27
2023-03-17T10:49:24.594Z,5.97
2023-03-17T10:51:55.561Z,4.73
2023-03-17T10:54:26.456Z,4.23
2023-03-17T10:57:01.434Z,3.00
2023-03-17T10:59:33.573Z,4.97
2023-03-17T11:02:09.307Z,6.57
2023-03-17T11:04:42.463Z,4.77
2023-03-17T11:07:17.805Z,3.30
2023-03-17T11:09:50.636Z,4.13
2023-03-17T11:12:25.581Z,5.83
2023-03-17T11:15:00.269Z,6.80
2023-03-17T11:17:38.961Z,7.13
2023-03-17T11:20:20.823Z,4.60
2023-03-17T11:22:54.292Z,3.80
2023-03-17T11:25:23.617Z,2.83
2023-03-17T11:27:55.712Z,8.30
2023-03-17T11:30:32.396Z,5.23
2023-03-17T11:33:07.572Z,3.30
2023-03-17T11:35:48.334Z,4.80
2023-03-17T11:38:35.228Z,5.93
2023-03-17T11:41:23.857Z,4.03
2023-03-17T11:44:07.972Z,5.83
2023-03-17T11:46:43.594Z,3.97
2023-03-17T11:49:15.345Z,2.37
2023-03-17T11:51:51.708Z,3.30
2023-03-17T11:54:24.702Z,6.00
2023-03-17T11:56:55.707Z,5.70
2023-03-17T11:59:30.689Z,3.30
2023-03-17T12:02:05.162Z,1.87
2023-03-17T12:04:36.355Z,2.53
2023-03-17T12:07:09.039Z,3.90
2023-03-17T12:09:42.164Z,3.77
2023-03-17T12:12:13.791Z,5.70
2023-03-17T12:14:46.381Z,4.80
2023-03-17T12:17:19.756Z,3.00
2023-03-17T12:19:59.288Z,4.43
2023-03-17T12:22:32.756Z,3.70
2023-03-17T12:25:10.348Z,4.07
2023-03-17T12:27:43.950Z,1.60
2023-03-17T12:30:23.002Z,4.87
2023-03-17T12:33:00.191Z,3.93
2023-03-17T12:35:31.754Z,3.43
2023-03-17T12:38:03.026Z,2.00
2023-03-17T12:40:34.777Z,2.50
2023-03-17T12:43:18.361Z,3.53
2023-03-17T12:46:03.234Z,4.10
2023-03-17T12:48:50.675Z,4.20
2023-03-17T12:51:33.040Z,6.80
2023-03-17T12:54:01.927Z,2.20
2023-03-17T12:56:32.412Z,3.10
2023-03-17T12:59:03.527Z,3.30
2023-03-17T13:01:33.936Z,2.40
2023-03-17T13:04:10.487Z,1.90
2023-03-17T13:06:42.962Z,1.37
2023-03-17T13:09:31.619Z,1.83
2023-03-17T13:12:01.885Z,3.07
2023-03-17T13:14:42.621Z,2.80
2023-03-17T13:17:33.048Z,1.10
2023-03-17T13:20:16.521Z,6.50
2023-03-17T13:23:03.163Z,1.10
2023-03-17T13:25:34.976Z,1.83
2023-03-17T13:28:25.723Z,1.50
2023-03-17T13:31:11.548Z,1.83
2023-03-17T13:33:45.599Z,0.90
2023-03-17T13:36:36.371Z,2.17
2023-03-17T13:39:31.240Z,1.13
2023-03-17T13:42:22.541Z,2.97
2023-03-17T13:45:10.872Z,1.20
2023-03-17T13:47:42.215Z,3.00
2023-03-17T13:50:15.785Z,7.83
2023-03-17T13:52:48.687Z,1.67
2023-03-17T13:55:38.714Z,1.87
2023-03-17T13:58:19.266Z,1.40
2023-03-17T14:00:50.669Z,2.80
2023-03-17T14:03:21.645Z,2.90
2023-03-17T14:05:52.604Z,1.00
2023-03-17T14:08:25.672Z,1.13
2023-03-17T14:10:55.688Z,2.20
2023-03-17T14:13:26.388Z,1.17
2023-03-17T14:15:58.024Z,6.00
2023-03-17T14:18:31.580Z,2.37
2023-03-17T14:21:02.668Z,3.03
2023-03-17T14:23:33.489Z,2.03
2023-03-17T14:26:03.740Z,1.63
2023-03-17T14:28:33.886Z,2.17
2023-03-17T14:31:04.864Z,3.80
2023-03-17T14:33:34.583Z,5.60
2023-03-17T14:36:05.268Z,1.20
2023-03-17T14:38:36.774Z,4.63
2023-03-17T14:41:07.134Z,2.20
2023-03-17T14:43:36.694Z,1.63
2023-03-17T14:46:07.576Z,2.17
2023-03-17T14:48:38.155Z,3.47
2023-03-17T14:51:10.624Z,1.00
2023-03-17T14:53:43.072Z,2.60
2023-03-17T14:56:11.907Z,1.90
2023-03-17T14:58:43.231Z,2.50
2023-03-17T15:01:16.986Z,3.53
2023-03-17T15:03:54.756Z,6.73
2023-03-17T15:06:26.300Z,7.20
2023-03-17T15:08:59.431Z,6.17
2023-03-17T15:11:29.470Z,2.03
2023-03-17T15:14:07.137Z,1.87
2023-03-17T15:16:37.216Z,3.67
2023-03-17T15:19:08.261Z,3.30
2023-03-17T15:21:40.465Z,3.60
2023-03-17T15:24:29.126Z,2.93
2023-03-17T15:27:06.434Z,2.50
2023-03-17T15:29:35.166Z,1.83
2023-03-17T15:32:12.037Z,2.30
2023-03-17T15:34:40.916Z,2.27
2023-03-17T15:37:16.688Z,3.00
2023-03-17T15:39:47.217Z,2.23
2023-03-17T15:42:16.543Z,1.20
2023-03-17T15:44:45.227Z,1.53
2023-03-17T15:47:15.638Z,1.90
2023-03-17T15:49:44.383Z,3.20
2023-03-17T15:52:17.040Z,6.33
2023-03-17T15:54:46.998Z,3.93
2023-03-17T15:57:15.656Z,4.13
2023-03-17T15:59:44.650Z,3.97
2023-03-17T16:02:24.674Z,6.50
2023-03-17T16:04:53.447Z,8.10
2023-03-17T16:07:22.329Z,8.73
2023-03-17T16:09:52.716Z,3.47
2023-03-17T16:12:21.372Z,10.33
2023-03-17T16:14:50.109Z,6.50
2023-03-17T16:17:26.756Z,8.60
2023-03-17T16:19:55.943Z,5.40
2023-03-17T16:22:41.827Z,3.53
2023-03-17T16:25:24.821Z,4.23
2023-03-17T16:27:54.910Z,3.40
2023-03-17T16:30:25.561Z,4.83
2023-03-17T16:32:55.419Z,5.93
2023-03-17T16:35:25.577Z,4.47
2023-03-17T16:37:55.048Z,8.60
2023-03-17T16:40:28.008Z,4.90
2023-03-17T16:42:56.743Z,6.80
2023-03-17T16:45:28.103Z,4.07
2023-03-17T16:47:57.913Z,4.70
2023-03-17T16:50:28.943Z,6.00
2023-03-17T16:52:57.856Z,3.27
2023-03-17T16:55:30.094Z,6.93
2023-03-17T16:58:00.935Z,4.53
2023-03-17T17:00:31.497Z,4.90
2023-03-17T17:03:00.432Z,2.80
2023-03-17T17:05:31.187Z,3.17
2023-03-17T17:08:00.205Z,7.90
2023-03-17T17:10:32.470Z,13.47
2023-03-17T17:13:01.364Z,11.40
2023-03-17T17:15:31.767Z,9.60
2023-03-17T17:18:02.448Z,12.50
2023-03-17T17:20:32.816Z,5.53
2023-03-17T17:23:03.007Z,7.50
2023-03-17T17:25:33.653Z,5.60
2023-03-17T17:28:02.454Z,14.63
2023-03-17T17:30:32.307Z,10.50
2023-03-17T17:33:02.005Z,7.60
2023-03-17T17:35:33.185Z,9.40
2023-03-17T17:38:02.115Z,7.30
2023-03-17T17:40:31.320Z,9.63
2023-03-17T17:43:01.652Z,8.80
2023-03-17T17:45:30.597Z,8.00
2023-03-17T17:47:59.307Z,7.40
2023-03-17T17:50:30.343Z,10.80
2023-03-17T17:53:05.004Z,11.60
2023-03-17T17:55:34.415Z,23.53
2023-03-17T17:58:04.716Z,10.30
2023-03-17T18:00:33.504Z,16.70
2023-03-17T18:03:02.315Z,11.97
2023-03-17T18:05:32.101Z,15.67
2023-03-17T18:08:02.328Z,11.13
2023-03-17T18:10:31.862Z,18.37
2023-03-17T18:13:00.813Z,12.20
2023-03-17T18:15:30.857Z,11.87
2023-03-17T18:17:59.566Z,11.67
2023-03-17T18:20:28.290Z,13.30
2023-03-17T18:22:56.960Z,16.93
2023-03-17T18:25:27.549Z,14.90
2023-03-17T18:27:56.261Z,12.67
2023-03-17T18:30:27.743Z,13.37
2023-03-17T18:33:03.001Z,12.50
2023-03-17T18:35:32.202Z,13.70
2023-03-17T18:38:01.528Z,10.13
2023-03-17T18:40:30.295Z,15.90
2023-03-17T18:42:58.955Z,15.57
2023-03-17T18:45:27.745Z,13.77
2023-03-17T18:47:57.803Z,16.30
2023-03-17T18:50:26.518Z,10.67
2023-03-17T18:52:55.853Z,9.37
2023-03-17T18:55:24.629Z,14.60
2023-03-17T18:57:54.546Z,12.27
2023-03-17T19:00:25.217Z,9.93
2023-03-17T19:02:54.179Z,12.67
2023-03-17T19:05:24.377Z,8.37
2023-03-17T19:07:53.020Z,9.20
2023-03-17T19:10:21.709Z,16.37
2023-03-17T19:12:50.619Z,11.60
2023-03-17T19:15:19.569Z,16.00
2023-03-17T19:17:50.409Z,14.80
2023-03-17T19:20:20.036Z,20.13
2023-03-17T19:22:49.990Z,12.43
2023-03-17T19:25:18.649Z,11.77
2023-03-17T19:27:47.300Z,12.60
2023-03-17T19:30:16.580Z,16.33
2023-03-17T19:32:45.316Z,12.67
2023-03-17T19:35:13.970Z,14.80
2023-03-17T19:37:42.625Z,24.63
2023-03-17T19:40:13.667Z,13.00
2023-03-17T19:42:42.593Z,14.70
2023-03-17T19:45:11.916Z,15.00
2023-03-17T19:47:41.112Z,15.33
2023-03-17T19:50:11.055Z,13.27
2023-03-17T19:52:39.743Z,9.27
2023-03-17T19:55:09.331Z,18.77
2023-03-17T19:57:39.308Z,11.37
2023-03-17T20:00:10.987Z,16.83
2023-03-17T20:02:39.583Z,14.33
2023-03-17T20:05:09.550Z,11.17
2023-03-17T20:07:38.252Z,17.80
2023-03-17T20:10:08.460Z,16.03
2023-03-17T20:12:38.990Z,12.77
2023-03-17T20:15:09.294Z,14.47
2023-03-17T20:17:37.991Z,13.23
2023-03-17T20:20:09.201Z,15.63
2023-03-17T20:22:38.579Z,15.10
2023-03-17T20:25:08.830Z,18.13
2023-03-17T20:27:39.441Z,15.10
2023-03-17T20:30:09.459Z,12.43
2023-03-17T20:32:38.175Z,13.50
2023-03-17T20:35:08.236Z,14.70
2023-03-17T20:37:37.196Z,16.53
2023-03-17T20:40:08.769Z,11.27
2023-03-17T20:42:38.752Z,12.83
2023-03-17T20:45:08.820Z,12.70
2023-03-17T20:47:37.531Z,18.80
2023-03-17T20:50:08.672Z,13.63
2023-03-17T20:52:38.138Z,21.30
2023-03-17T20:55:08.444Z,15.27
2023-03-17T20:57:37.978Z,14.27
2023-03-17T21:00:10.360Z,23.13
2023-03-17T21:02:41.354Z,13.07
2023-03-17T21:05:14.071Z,13.97
2023-03-17T21:07:43.404Z,19.63
2023-03-17T21:10:15.362Z,19.93
2023-03-17T21:12:44.289Z,13.20
2023-03-17T21:15:15.640Z,16.03
2023-03-17T21:17:44.234Z,13.00
2023-03-17T21:20:14.723Z,15.43
2023-03-17T21:22:43.685Z,18.67
2023-03-17T21:25:12.707Z,14.37
2023-03-17T21:27:42.595Z,11.77
2023-03-17T21:30:14.775Z,11.33
2023-03-17T21:32:43.710Z,13.30
2023-03-17T21:35:12.808Z,8.30
2023-03-17T21:37:42.515Z,16.83
2023-03-17T21:40:13.529Z,13.63
2023-03-17T21:42:42.285Z,14.57
2023-03-17T21:45:11.448Z,15.00
2023-03-17T21:47:42.512Z,12.00
2023-03-17T21:50:11.869Z,12.33
2023-03-17T21:52:40.528Z,16.83
2023-03-17T21:55:10.201Z,14.53
2023-03-17T21:57:39.126Z,13.37
2023-03-17T22:00:09.681Z,14.23
2023-03-17T22:02:38.422Z,9.37
2023-03-17T22:05:11.600Z,10.37
2023-03-17T22:07:41.026Z,14.77
2023-03-17T22:10:11.304Z,10.03
2023-03-17T22:12:40.276Z,11.10
2023-03-17T22:15:10.232Z,19.73
2023-03-17T22:17:39.602Z,11.40
2023-03-17T22:20:11.021Z,13.33
2023-03-17T22:22:39.649Z,14.90
2023-03-17T22:25:09.097Z,12.03
2023-03-17T22:27:37.725Z,13.13
2023-03-17T22:30:07.386Z,12.17
2023-03-17T22:32:36.039Z,10.43
2023-03-17T22:35:05.079Z,8.63
2023-03-17T22:37:35.364Z,12.97
2023-03-17T22:40:06.283Z,10.43
2023-03-17T22:42:35.042Z,11.70
2023-03-17T22:45:04.441Z,10.27
2023-03-17T22:47:33.163Z,10.67
2023-03-17T22:50:01.847Z,10.03
2023-03-17T22:52:30.583Z,18.37
2023-03-17T22:55:00.618Z,16.90
2023-03-17T22:57:29.195Z,10.07
2023-03-17T22:59:58.286Z,12.57
2023-03-17T23:02:27.254Z,9.43
2023-03-17T23:04:55.892Z,12.00
2023-03-17T23:07:24.550Z,7.70
2023-03-17T23:09:53.116Z,9.83
2023-03-17T23:12:24.445Z,14.50
2023-03-17T23:14:53.217Z,9.10
2023-03-17T23:17:21.932Z,12.97
2023-03-17T23:19:50.527Z,10.93
2023-03-17T23:22:19.179Z,11.90
2023-03-17T23:24:47.791Z,7.67
2023-03-17T23:27:16.574Z,10.83
2023-03-17T23:29:46.488Z,8.40
2023-03-17T23:32:15.564Z,11.67
2023-03-17T23:34:44.429Z,8.90
2023-03-17T23:37:12.999Z,9.70
2023-03-17T23:39:41.598Z,9.50
2023-03-17T23:42:11.192Z,11.17
2023-03-17T23:44:39.801Z,8.60
2023-03-17T23:47:10.587Z,11.57
2023-03-17T23:49:39.358Z,10.27
2023-03-17T23:52:08.931Z,14.40
2023-03-17T23:54:38.728Z,7.87
2023-03-17T23:57:07.871Z,8.63
2023-03-17T23:59:36.985Z,10.07
